Time;durP1;ratioP1;P1;durP2;ratioP2;P2;SDS_P1;SDS_P2;PMS_P1;PMS_P2;Temp;Humidity;BMP_temperature;BMP_pressure;BME280_temperature;BME280_humidity;BME280_pressure;Samples;Min_cycle;Max_cycle;Signal;HPM_P1;HPM_P2
2021/10/19 00:00:05;;;;;;;27.58;15.13;;;5.30;99.90;;;;;;4769313;30;20040;-81
2021/10/19 00:02:40;;;;;;;48.92;15.82;;;5.30;99.90;;;;;;4769147;30;20055;-80
2021/10/19 00:05:09;;;;;;;262.17;45.92;;;5.20;99.90;;;;;;4753184;30;20062;-80
2021/10/19 00:07:38;;;;;;;22.55;14.30;;;5.20;99.90;;;;;;4753451;30;20066;-80
2021/10/19 00:10:07;;;;;;;107.10;25.20;;;5.00;99.90;;;;;;4768643;30;20063;-80
2021/10/19 00:12:35;;;;;;;44.22;15.52;;;5.00;99.90;;;;;;4769624;30;20056;-80
2021/10/19 00:15:08;;;;;;;35.45;16.48;;;5.00;99.90;;;;;;4747894;30;20048;-80
2021/10/19 00:17:38;;;;;;;33.92;15.00;;;5.10;99.90;;;;;;4753085;30;20088;-80
2021/10/19 00:20:07;;;;;;;19.58;13.20;;;5.20;99.90;;;;;;4762077;30;20054;-80
2021/10/19 00:22:35;;;;;;;25.60;14.18;;;5.30;99.90;;;;;;4767825;30;20074;-80
2021/10/19 00:25:06;;;;;;;18.75;14.05;;;5.40;99.90;;;;;;4751355;30;20054;-81
2021/10/19 00:27:37;;;;;;;18.55;14.90;;;5.40;99.90;;;;;;4752207;30;20064;-80
2021/10/19 00:30:07;;;;;;;19.58;12.55;;;5.30;99.90;;;;;;4768147;30;20059;-81
2021/10/19 00:32:35;;;;;;;55.55;15.45;;;5.30;99.90;;;;;;4753207;30;20051;-80
2021/10/19 00:35:03;;;;;;;119.90;27.77;;;5.00;99.90;;;;;;4768274;30;20062;-80
2021/10/19 00:37:32;;;;;;;104.25;20.40;;;4.80;99.90;;;;;;4738219;30;20149;-82
2021/10/19 00:40:00;;;;;;;21.92;12.45;;;4.80;99.90;;;;;;4766782;30;20502;-79
2021/10/19 00:42:28;;;;;;;36.75;13.77;;;4.80;99.90;;;;;;4766818;30;20517;-80
2021/10/19 00:44:55;;;;;;;19.77;8.82;;;4.90;99.90;;;;;;4765359;30;20066;-81
2021/10/19 00:47:23;;;;;;;37.42;12.25;;;4.90;99.90;;;;;;4750798;30;20063;-80
2021/10/19 00:49:51;;;;;;;30.73;11.95;;;4.80;99.90;;;;;;4750463;30;20046;-82
2021/10/19 00:52:19;;;;;;;20.48;12.98;;;4.70;99.90;;;;;;4761854;30;20055;-80
2021/10/19 00:54:47;;;;;;;23.90;13.13;;;4.60;99.90;;;;;;4766639;30;20614;-80
2021/10/19 00:57:15;;;;;;;20.23;12.23;;;4.60;99.90;;;;;;4766921;30;20044;-80
2021/10/19 00:59:44;;;;;;;45.15;16.20;;;4.50;99.90;;;;;;4765747;30;20051;-80
2021/10/19 01:02:13;;;;;;;63.25;19.63;;;4.50;99.90;;;;;;4765264;30;20044;-80
2021/10/19 01:04:42;;;;;;;22.10;13.38;;;4.60;99.90;;;;;;4765719;30;20051;-80
2021/10/19 01:07:11;;;;;;;16.27;13.82;;;4.70;99.90;;;;;;4766857;30;20438;-80
2021/10/19 01:09:39;;;;;;;17.15;13.52;;;4.80;99.90;;;;;;4749959;30;20055;-80
2021/10/19 01:12:09;;;;;;;38.78;12.02;;;4.80;99.90;;;;;;4766097;30;20062;-81
2021/10/19 01:14:37;;;;;;;100.97;17.67;;;4.80;99.90;;;;;;4757931;30;20066;-80
2021/10/19 01:17:08;;;;;;;108.45;18.75;;;4.80;99.90;;;;;;4766830;30;20052;-80
2021/10/19 01:19:35;;;;;;;111.93;28.73;;;4.80;99.90;;;;;;4766833;30;20527;-80
2021/10/19 01:22:05;;;;;;;73.05;19.55;;;4.80;99.90;;;;;;4735411;30;20044;-80
2021/10/19 01:24:33;;;;;;;40.00;16.38;;;4.90;99.90;;;;;;4766287;30;20736;-80
2021/10/19 01:27:00;;;;;;;86.80;16.67;;;4.70;99.90;;;;;;4766413;30;20054;-80
2021/10/19 01:29:28;;;;;;;49.13;16.33;;;4.50;99.90;;;;;;4764600;30;20503;-80
2021/10/19 01:31:56;;;;;;;34.83;15.68;;;4.50;99.90;;;;;;4766433;30;20063;-79
2021/10/19 01:34:24;;;;;;;69.70;24.42;;;4.60;99.90;;;;;;4766478;30;20059;-80
2021/10/19 01:36:52;;;;;;;24.90;15.40;;;4.60;99.90;;;;;;4766505;30;20051;-80
2021/10/19 01:39:19;;;;;;;22.80;14.27;;;4.70;99.90;;;;;;4766294;30;20155;-80
2021/10/19 01:41:47;;;;;;;17.90;12.40;;;4.70;99.90;;;;;;4765572;30;20340;-79
2021/10/19 01:44:15;;;;;;;19.00;12.40;;;4.90;99.90;;;;;;4749026;30;20064;-79
2021/10/19 01:46:42;;;;;;;18.75;13.18;;;5.00;99.90;;;;;;4750112;30;20055;-80
2021/10/19 01:49:10;;;;;;;17.08;10.73;;;5.00;99.90;;;;;;4750151;30;20072;-80
2021/10/19 01:51:38;;;;;;;20.52;11.07;;;4.90;99.90;;;;;;4765907;30;20060;-80
2021/10/19 01:54:06;;;;;;;14.25;12.70;;;4.80;99.90;;;;;;4765504;30;20078;-80
2021/10/19 01:56:33;;;;;;;16.48;10.00;;;4.70;99.90;;;;;;4750573;30;20063;-80
2021/10/19 01:59:01;;;;;;;17.73;10.05;;;4.60;99.90;;;;;;4764721;30;20509;-80
2021/10/19 02:01:29;;;;;;;19.45;11.43;;;4.50;99.90;;;;;;4749327;30;20051;-78
2021/10/19 02:03:56;;;;;;;16.38;8.52;;;4.50;99.90;;;;;;4766469;30;20044;-80
2021/10/19 02:06:24;;;;;;;11.25;9.40;;;4.70;99.90;;;;;;4766077;30;20530;-80
2021/10/19 02:08:52;;;;;;;14.23;11.73;;;4.80;99.90;;;;;;4765315;30;20074;-79
2021/10/19 02:11:19;;;;;;;48.78;15.45;;;4.90;99.90;;;;;;4765787;30;20047;-80
2021/10/19 02:13:47;;;;;;;23.40;11.18;;;4.80;99.90;;;;;;4760834;30;20051;-80
2021/10/19 02:16:15;;;;;;;14.73;8.93;;;4.60;99.90;;;;;;4766164;30;20058;-80
2021/10/19 02:18:42;;;;;;;41.25;13.15;;;4.40;99.90;;;;;;4765928;30;20488;-79
2021/10/19 02:21:10;;;;;;;30.83;10.38;;;4.20;99.90;;;;;;4765111;30;20410;-79
2021/10/19 02:23:38;;;;;;;11.60;9.02;;;4.30;99.90;;;;;;4765904;30;20399;-80
2021/10/19 02:26:05;;;;;;;8.25;7.32;;;4.30;99.90;;;;;;4765867;30;21274;-80
2021/10/19 02:28:33;;;;;;;8.45;6.85;;;4.50;99.90;;;;;;4764383;30;20506;-80
2021/10/19 02:31:01;;;;;;;13.05;7.45;;;4.70;99.90;;;;;;4765121;30;20039;-81
2021/10/19 02:33:29;;;;;;;7.03;6.38;;;4.80;99.90;;;;;;4765677;30;20059;-80
2021/10/19 02:35:57;;;;;;;8.60;6.80;;;4.70;99.90;;;;;;4749983;30;20063;-80
2021/10/19 02:38:24;;;;;;;7.50;6.00;;;4.80;99.90;;;;;;4765504;30;20068;-80
2021/10/19 02:40:52;;;;;;;7.82;6.90;;;4.90;99.90;;;;;;4765245;30;20427;-80
2021/10/19 02:43:20;;;;;;;33.80;9.88;;;4.70;99.90;;;;;;4764280;30;20052;-81
2021/10/19 02:45:49;;;;;;;18.20;6.05;;;4.70;99.90;;;;;;4749460;30;20048;-81
2021/10/19 02:48:16;;;;;;;6.13;5.00;;;4.20;99.90;;;;;;4763359;30;20062;-81
2021/10/19 02:50:44;;;;;;;9.57;6.40;;;4.00;99.90;;;;;;4765312;30;20052;-81
2021/10/19 02:53:12;;;;;;;7.82;4.85;;;4.10;99.90;;;;;;4765019;30;20052;-81
2021/10/19 02:55:40;;;;;;;17.90;6.00;;;4.10;99.90;;;;;;4749846;30;20051;-81
2021/10/19 02:58:08;;;;;;;5.35;4.65;;;4.20;99.90;;;;;;4764245;30;20415;-81
2021/10/19 03:00:39;;;;;;;5.45;4.72;;;4.40;99.90;;;;;;4749564;30;20052;-81
2021/10/19 03:03:06;;;;;;;5.00;4.00;;;4.50;99.90;;;;;;4765312;30;20059;-81
2021/10/19 03:05:34;;;;;;;6.75;5.88;;;4.50;99.90;;;;;;4765624;30;20052;-81
2021/10/19 03:08:02;;;;;;;5.15;4.45;;;4.50;99.90;;;;;;4749815;30;20063;-81
2021/10/19 03:10:29;;;;;;;8.43;5.25;;;4.50;99.90;;;;;;4764967;30;20059;-81
2021/10/19 03:12:57;;;;;;;6.25;4.10;;;4.50;99.90;;;;;;4764814;30;20052;-81
2021/10/19 03:15:25;;;;;;;8.23;5.50;;;4.50;99.90;;;;;;4748290;30;20499;-81
2021/10/19 03:17:52;;;;;;;6.28;4.35;;;4.50;99.90;;;;;;4765089;30;20052;-82
2021/10/19 03:20:20;;;;;;;5.47;4.78;;;4.40;99.90;;;;;;4765615;30;20059;-81
2021/10/19 03:22:48;;;;;;;6.95;4.53;;;4.40;99.90;;;;;;4765580;30;20052;-80
2021/10/19 03:25:15;;;;;;;4.63;4.13;;;4.40;99.90;;;;;;4761586;30;20043;-81
2021/10/19 03:27:43;;;;;;;5.65;4.35;;;4.40;99.90;;;;;;4752423;30;20055;-80
2021/10/19 03:30:11;;;;;;;5.55;4.25;;;4.40;99.90;;;;;;4735599;30;20047;-81
2021/10/19 03:32:39;;;;;;;5.97;5.05;;;4.30;99.90;;;;;;4769083;30;20406;-80
2021/10/19 03:35:07;;;;;;;7.57;4.97;;;4.30;99.90;;;;;;4768766;30;20048;-82
2021/10/19 03:37:34;;;;;;;5.38;4.82;;;4.30;99.90;;;;;;4770160;30;20048;-81
2021/10/19 03:40:04;;;;;;;5.38;4.93;;;4.40;99.90;;;;;;4770036;30;20476;-81
2021/10/19 03:42:31;;;;;;;21.70;7.00;;;4.40;99.90;;;;;;4762091;30;20050;-81
2021/10/19 03:44:59;;;;;;;10.57;4.43;;;4.40;99.90;;;;;;4767822;30;20434;-82
2021/10/19 03:47:27;;;;;;;5.72;3.92;;;4.30;99.90;;;;;;4769907;30;20399;-81
2021/10/19 03:49:54;;;;;;;4.53;4.13;;;4.30;99.90;;;;;;4752915;30;20056;-81
2021/10/19 03:52:22;;;;;;;5.03;4.53;;;4.20;99.90;;;;;;4753803;30;20059;-81
2021/10/19 03:54:50;;;;;;;8.90;6.03;;;4.10;99.90;;;;;;4753487;30;20058;-81
2021/10/19 03:57:17;;;;;;;6.80;5.50;;;4.00;99.90;;;;;;4769345;30;20052;-82
2021/10/19 03:59:45;;;;;;;5.28;4.78;;;4.10;99.90;;;;;;4768902;30;20060;-81
2021/10/19 04:02:13;;;;;;;6.53;5.80;;;4.10;99.90;;;;;;4769440;30;20066;-81
2021/10/19 04:04:41;;;;;;;7.63;5.18;;;4.10;99.90;;;;;;4769806;30;20082;-81
2021/10/19 04:07:11;;;;;;;8.13;5.43;;;4.10;99.90;;;;;;4769109;30;20072;-81
2021/10/19 04:09:39;;;;;;;5.00;3.65;;;4.20;99.90;;;;;;4768309;29;20086;-81
2021/10/19 04:12:08;;;;;;;6.90;5.15;;;4.40;99.90;;;;;;4767361;30;20082;-81
2021/10/19 04:14:35;;;;;;;7.18;6.57;;;4.60;99.90;;;;;;4764158;30;20056;-80
2021/10/19 04:17:03;;;;;;;6.15;4.95;;;4.60;99.90;;;;;;4744888;30;20055;-81
2021/10/19 04:19:31;;;;;;;5.22;4.30;;;4.70;99.90;;;;;;4751859;30;20048;-80
2021/10/19 04:21:59;;;;;;;6.45;5.30;;;4.90;99.90;;;;;;4750407;30;20059;-80
2021/10/19 04:24:26;;;;;;;5.63;5.10;;;5.00;99.90;;;;;;4767712;30;20055;-80
2021/10/19 04:26:54;;;;;;;6.03;4.40;;;5.00;99.90;;;;;;4767839;30;20052;-81
2021/10/19 04:29:22;;;;;;;4.75;4.10;;;5.10;99.90;;;;;;4765872;30;20534;-81
2021/10/19 04:31:49;;;;;;;3.67;3.38;;;5.10;99.90;;;;;;4751786;30;20063;-81
2021/10/19 04:34:17;;;;;;;5.57;5.03;;;5.00;99.90;;;;;;4736322;30;20143;-81
2021/10/19 04:36:45;;;;;;;3.78;3.42;;;5.10;99.90;;;;;;4750672;30;20151;-81
2021/10/19 04:39:13;;;;;;;4.28;3.88;;;5.00;99.90;;;;;;4766641;30;20051;-82
2021/10/19 04:41:44;;;;;;;5.35;4.57;;;4.80;99.90;;;;;;4766774;30;20055;-81
2021/10/19 04:44:12;;;;;;;8.52;5.95;;;4.70;99.90;;;;;;4765223;30;20052;-79
2021/10/19 04:46:43;;;;;;;12.55;4.00;;;4.70;99.90;;;;;;4736544;30;20050;-81
2021/10/19 04:49:11;;;;;;;11.65;4.65;;;4.50;99.90;;;;;;4764447;30;20059;-80
2021/10/19 04:51:39;;;;;;;4.20;3.40;;;4.20;99.90;;;;;;4766951;30;20078;-81
2021/10/19 04:54:07;;;;;;;5.50;4.60;;;4.10;99.90;;;;;;4765180;30;20440;-81
2021/10/19 04:56:35;;;;;;;4.95;4.38;;;4.10;99.90;;;;;;4766052;30;20087;-80
2021/10/19 04:59:02;;;;;;;6.18;3.80;;;4.10;99.90;;;;;;4729962;30;20044;-80
2021/10/19 05:01:30;;;;;;;7.50;4.03;;;4.10;99.90;;;;;;4766398;30;20054;-81
2021/10/19 05:03:58;;;;;;;4.95;4.38;;;4.20;99.90;;;;;;4751049;30;20058;-80
2021/10/19 05:06:26;;;;;;;5.40;4.30;;;4.30;99.90;;;;;;4765858;30;20040;-80
2021/10/19 05:08:54;;;;;;;11.90;3.80;;;4.30;99.90;;;;;;4750397;30;20063;-79
2021/10/19 05:11:22;;;;;;;4.82;4.32;;;4.30;99.90;;;;;;4750690;30;20062;-79
2021/10/19 05:13:49;;;;;;;6.55;5.47;;;4.30;99.90;;;;;;4748691;30;20052;-78
2021/10/19 05:16:17;;;;;;;4.40;3.92;;;4.30;99.90;;;;;;4766715;30;20051;-79
2021/10/19 05:18:45;;;;;;;5.05;4.38;;;4.40;99.90;;;;;;4766878;30;20044;-81
2021/10/19 05:21:12;;;;;;;5.28;4.38;;;4.50;99.90;;;;;;4750268;30;20048;-80
2021/10/19 05:23:40;;;;;;;5.30;4.70;;;4.50;99.90;;;;;;4767212;30;20059;-81
2021/10/19 05:26:11;;;;;;;10.60;6.05;;;4.50;99.90;;;;;;4765763;30;20075;-80
2021/10/19 05:28:39;;;;;;;4.93;4.53;;;4.50;99.90;;;;;;4764568;30;20060;-81
2021/10/19 05:31:07;;;;;;;5.63;5.10;;;4.50;99.90;;;;;;4765060;30;20062;-80
2021/10/19 05:33:34;;;;;;;4.57;3.92;;;4.40;99.90;;;;;;4765834;30;20104;-80
2021/10/19 05:36:02;;;;;;;4.90;4.40;;;4.40;99.90;;;;;;4765659;30;20391;-81
2021/10/19 05:38:33;;;;;;;4.95;4.30;;;4.50;99.90;;;;;;4766804;30;20062;-81
2021/10/19 05:41:02;;;;;;;;;;;4.70;99.90;;;;;;4766195;30;20411;-80
2021/10/19 05:43:30;;;;;;;5.43;4.88;;;4.60;99.90;;;;;;4766019;30;19930;-80
2021/10/19 05:45:57;;;;;;;5.82;4.40;;;4.50;99.90;;;;;;4767488;30;20058;-81
2021/10/19 05:48:25;;;;;;;11.43;4.78;;;4.70;99.90;;;;;;4768225;30;20055;-80
2021/10/19 05:50:53;;;;;;;7.95;4.50;;;4.70;99.90;;;;;;4767439;30;20486;-80
2021/10/19 05:53:21;;;;;;;9.55;4.88;;;4.70;99.90;;;;;;4767292;30;20418;-80
2021/10/19 05:55:49;;;;;;;4.90;3.70;;;4.70;99.90;;;;;;4767737;30;20082;-80
2021/10/19 05:58:17;;;;;;;3.50;3.10;;;4.40;99.90;;;;;;4736286;30;20051;-80
2021/10/19 06:00:50;;;;;;;4.05;3.15;;;4.30;99.90;;;;;;4751331;30;20051;-80
2021/10/19 06:03:18;;;;;;;4.78;4.35;;;4.30;99.90;;;;;;4751892;30;20145;-80
2021/10/19 06:05:46;;;;;;;5.82;4.25;;;4.30;99.90;;;;;;4768897;30;20043;-79
2021/10/19 06:08:14;;;;;;;3.30;3.08;;;4.40;99.90;;;;;;4773002;30;20407;-80
2021/10/19 06:10:42;;;;;;;3.78;2.95;;;4.60;99.90;;;;;;4748022;30;20316;-79
2021/10/19 06:13:09;;;;;;;3.80;3.05;;;4.60;99.90;;;;;;4766956;30;20051;-79
2021/10/19 06:15:40;;;;;;;3.97;3.58;;;4.80;99.90;;;;;;4766714;30;20067;-79
2021/10/19 06:18:08;;;;;;;3.97;3.53;;;4.90;99.90;;;;;;4741254;30;20070;-80
2021/10/19 06:20:36;;;;;;;4.40;4.00;;;5.00;99.90;;;;;;4771169;30;20047;-80
2021/10/19 06:23:03;;;;;;;4.65;3.83;;;5.10;99.90;;;;;;4771087;30;20511;-80
2021/10/19 06:25:32;;;;;;;3.30;3.10;;;5.10;99.90;;;;;;4757352;30;20059;-80
2021/10/19 06:28:00;;;;;;;4.15;3.75;;;5.20;99.90;;;;;;4761408;30;20055;-79
2021/10/19 06:30:27;;;;;;;5.00;4.32;;;5.20;99.90;;;;;;4767332;30;20044;-82
2021/10/19 06:32:55;;;;;;;5.35;3.95;;;5.30;99.90;;;;;;4773302;30;20056;-80
2021/10/19 06:35:23;;;;;;;6.38;4.28;;;5.40;99.90;;;;;;4752950;30;20068;-81
2021/10/19 06:37:51;;;;;;;5.00;4.50;;;5.40;99.90;;;;;;4750565;30;20059;-80
2021/10/19 06:40:19;;;;;;;4.88;4.38;;;5.50;99.90;;;;;;4772227;30;20052;-79
2021/10/19 06:42:53;;;;;;;4.68;3.70;;;5.60;99.90;;;;;;4758612;30;20442;-81
2021/10/19 06:45:25;;;;;;;5.90;4.85;;;5.60;99.90;;;;;;4765813;30;20051;-80
2021/10/19 06:47:52;;;;;;;4.40;3.75;;;5.60;99.90;;;;;;4749949;30;20077;-80
2021/10/19 06:50:20;;;;;;;5.47;3.53;;;5.70;99.90;;;;;;4764285;30;20828;-80
2021/10/19 06:52:48;;;;;;;6.15;4.35;;;5.70;99.90;;;;;;4766076;30;20055;-80
2021/10/19 06:55:16;;;;;;;4.72;4.28;;;5.70;99.90;;;;;;4768472;30;20051;-80
2021/10/19 06:57:44;;;;;;;8.60;5.80;;;5.70;99.90;;;;;;4768570;29;20051;-80
2021/10/19 07:00:15;;;;;;;4.18;3.75;;;5.90;99.90;;;;;;4771615;30;20059;-79
2021/10/19 07:02:47;;;;;;;5.00;4.50;;;5.90;99.90;;;;;;4770669;30;20048;-81
2021/10/19 07:05:15;;;;;;;;;;;6.10;99.90;;;;;;4770345;30;20047;-81
2021/10/19 07:07:43;;;;;;;3.88;3.58;;;6.20;99.90;;;;;;4770971;30;19952;-80
2021/10/19 07:10:13;;;;;;;4.57;4.18;;;6.30;99.90;;;;;;4770156;30;20055;-80
2021/10/19 07:12:41;;;;;;;5.10;4.60;;;6.30;99.90;;;;;;4770228;30;20070;-81
2021/10/19 07:15:09;;;;;;;3.95;3.55;;;6.30;99.90;;;;;;4775753;30;20082;-80
2021/10/19 07:17:38;;;;;;;5.30;4.45;;;6.40;99.90;;;;;;4771026;30;20072;-80
2021/10/19 07:20:08;;;;;;;6.88;3.85;;;6.50;99.90;;;;;;4778171;30;20047;-81
2021/10/19 07:22:37;;;;;;;5.97;3.90;;;6.60;99.90;;;;;;4753747;30;20048;-80
2021/10/19 07:25:07;;;;;;;6.05;3.80;;;6.80;99.90;;;;;;4765431;30;20048;-80
2021/10/19 07:27:38;;;;;;;4.50;3.90;;;6.90;99.90;;;;;;4762908;30;20382;-80
2021/10/19 07:30:09;;;;;;;5.22;4.70;;;6.90;99.90;;;;;;4760250;30;20055;-80
2021/10/19 07:32:37;;;;;;;6.63;3.63;;;7.00;99.90;;;;;;4777535;30;20044;-81
2021/10/19 07:35:05;;;;;;;7.28;3.08;;;7.10;99.90;;;;;;4775876;30;20054;-81
2021/10/19 07:37:37;;;;;;;3.60;3.30;;;7.10;99.90;;;;;;4760280;30;20973;-80
2021/10/19 07:40:07;;;;;;;4.80;4.47;;;7.30;99.90;;;;;;4773516;30;20058;-81
2021/10/19 07:42:37;;;;;;;4.60;3.70;;;7.40;99.90;;;;;;4777952;30;20043;-80
2021/10/19 07:45:11;;;;;;;3.80;3.50;;;7.60;99.90;;;;;;4770065;30;20043;-80
2021/10/19 07:47:43;;;;;;;12.90;3.58;;;7.70;99.90;;;;;;4763992;30;20065;-81
2021/10/19 07:50:17;;;;;;;6.13;4.35;;;8.00;99.90;;;;;;4780418;30;20436;-81
2021/10/19 07:52:45;;;;;;;6.35;5.78;;;8.00;99.90;;;;;;4774012;30;20050;-80
2021/10/19 07:55:13;;;;;;;7.00;5.03;;;8.10;99.90;;;;;;4765313;30;20058;-80
2021/10/19 07:57:49;;;;;;;4.97;4.47;;;8.10;99.90;;;;;;4769354;30;20712;-81
2021/10/19 08:00:25;;;;;;;5.97;5.07;;;8.30;99.90;;;;;;4768408;30;20064;-80
2021/10/19 08:02:53;;;;;;;6.25;4.07;;;8.30;99.90;;;;;;4768845;30;20056;-80
2021/10/19 08:05:22;;;;;;;7.25;4.32;;;8.40;99.90;;;;;;4769206;30;20047;-81
2021/10/19 08:07:51;;;;;;;5.90;3.67;;;8.40;99.90;;;;;;4754191;30;20044;-80
2021/10/19 08:10:22;;;;;;;3.33;3.03;;;8.50;99.90;;;;;;4752988;30;20051;-81
2021/10/19 08:12:50;;;;;;;7.22;4.10;;;8.50;99.90;;;;;;4767021;30;20487;-80
2021/10/19 08:15:18;;;;;;;4.55;3.03;;;8.60;99.90;;;;;;4761297;30;20136;-80
2021/10/19 08:17:46;;;;;;;3.13;2.83;;;8.80;99.90;;;;;;4769555;30;20059;-81
2021/10/19 08:20:16;;;;;;;4.72;2.67;;;8.80;99.90;;;;;;4769441;30;20055;-81
2021/10/19 08:22:45;;;;;;;7.28;3.97;;;8.80;99.90;;;;;;4768771;30;20048;-82
2021/10/19 08:25:18;;;;;;;7.03;3.22;;;8.90;99.90;;;;;;4768221;30;20052;-81
2021/10/19 08:27:56;;;;;;;7.50;3.22;;;8.90;99.90;;;;;;4769353;30;20059;-81
2021/10/19 08:30:25;;;;;;;2.78;2.58;;;9.00;99.90;;;;;;4767994;30;20056;-81
2021/10/19 08:32:53;;;;;;;3.15;2.78;;;9.10;99.90;;;;;;4768711;30;20066;-81
2021/10/19 08:35:22;;;;;;;12.50;2.63;;;9.10;99.90;;;;;;4760030;30;20059;-81
2021/10/19 08:37:53;;;;;;;5.03;2.28;;;9.20;99.90;;;;;;4777971;30;20055;-81
2021/10/19 08:40:22;;;;;;;3.65;2.60;;;9.30;99.90;;;;;;4765953;30;20055;-81
2021/10/19 08:42:53;;;;;;;3.20;2.55;;;9.40;99.90;;;;;;4775600;30;20055;-80
2021/10/19 08:45:21;;;;;;;9.75;3.75;;;9.50;99.90;;;;;;4758742;30;20067;-81
2021/10/19 08:47:50;;;;;;;3.45;2.33;;;9.60;99.90;;;;;;4774114;30;20047;-81
2021/10/19 08:50:21;;;;;;;3.42;3.05;;;9.60;99.90;;;;;;4753163;30;20450;-80
2021/10/19 08:52:50;;;;;;;2.95;2.60;;;9.70;99.90;;;;;;4756128;30;20059;-80
2021/10/19 08:55:20;;;;;;;5.03;3.58;;;9.90;99.90;;;;;;4772975;30;20054;-80
2021/10/19 08:57:48;;;;;;;4.13;2.80;;;10.00;99.90;;;;;;4769138;30;20048;-80
2021/10/19 09:00:16;;;;;;;4.22;3.85;;;10.00;99.90;;;;;;4769771;30;20048;-80
2021/10/19 09:02:50;;;;;;;4.43;3.47;;;10.10;99.90;;;;;;4761834;30;20056;-80
2021/10/19 09:05:26;;;;;;;2.33;2.13;;;10.20;99.90;;;;;;4766160;30;20079;-80
2021/10/19 09:08:05;;;;;;;5.35;2.70;;;10.30;99.90;;;;;;4778065;30;20058;-80
2021/10/19 09:10:41;;;;;;;3.08;2.88;;;10.30;99.90;;;;;;4772475;30;20050;-80
2021/10/19 09:13:14;;;;;;;4.65;4.22;;;10.40;99.90;;;;;;4734230;30;20048;-80
2021/10/19 09:15:47;;;;;;;3.33;3.03;;;10.40;99.90;;;;;;4753966;30;20056;-80
2021/10/19 09:18:20;;;;;;;4.82;2.63;;;10.40;99.90;;;;;;4748758;30;20499;-79
2021/10/19 09:47:37;;;;;;;4.57;4.13;;;10.20;99.90;;;;;;4713803;30;20576;-86
2021/10/19 10:03:50;;;;;;;5.82;3.90;;;10.30;99.90;;;;;;4895886;24;20064;-87
2021/10/19 10:32:45;;;;;;;3.63;2.85;;;10.60;99.90;;;;;;4761786;30;20043;-84
2021/10/19 10:40:40;;;;;;;11.70;5.00;;;10.60;99.90;;;;;;4640491;30;20192;-87
2021/10/19 10:49:28;;;;;;;3.20;2.90;;;10.80;99.90;;;;;;4645092;30;20055;-90
2021/10/19 10:56:23;;;;;;;3.92;3.60;;;11.00;99.90;;;;;;4666698;30;20085;-90
2021/10/19 10:59:33;;;;;;;4.05;3.00;;;11.10;99.90;;;;;;4645609;30;20046;-90
2021/10/19 11:05:30;;;;;;;7.47;3.80;;;11.00;99.90;;;;;;5082271;27;20419;-89
2021/10/19 11:08:46;;;;;;;2.60;2.40;;;11.10;99.90;;;;;;5006012;28;20046;-89
2021/10/19 11:11:24;;;;;;;9.48;4.63;;;11.10;99.90;;;;;;4990264;28;20046;-89
2021/10/19 11:24:43;;;;;;;5.47;2.97;;;11.10;99.90;;;;;;4948151;29;20039;-86
2021/10/19 11:28:34;;;;;;;;;;;;;;;;;;;;;
2021/10/19 11:32:06;;;;;;;5.45;4.28;;;11.40;99.90;;;;;;5209980;22;20052;-88
2021/10/19 11:40:00;;;;;;;;;;;;;;;;;;;;;
2021/10/19 11:47:11;;;;;;;3.70;3.25;;;11.90;99.90;;;;;;5345125;22;20053;-87
2021/10/19 11:53:16;;;;;;;5.63;3.28;;;12.00;99.90;;;;;;6097103;23;20030;31
2021/10/19 12:19:50;;;;;;;12.50;2.78;;;12.70;99.90;;;;;;4757393;30;20048;-88
2021/10/19 12:22:39;;;;;;;5.78;4.05;;;12.70;99.90;;;;;;4727145;30;20478;-89
2021/10/19 12:34:15;;;;;;;4.25;3.17;;;12.90;99.90;;;;;;4712800;30;20415;-86
2021/10/19 12:36:43;;;;;;;5.82;4.00;;;13.10;99.90;;;;;;4705545;30;20355;-85
2021/10/19 12:39:18;;;;;;;4.88;3.55;;;13.10;99.90;;;;;;4696223;30;20593;-86
2021/10/19 12:41:47;;;;;;;8.23;4.10;;;13.30;99.90;;;;;;4723508;30;20061;-83
2021/10/19 12:44:57;;;;;;;2.80;2.60;;;13.20;99.90;;;;;;4696003;30;20072;-85
2021/10/19 12:47:25;;;;;;;3.78;3.47;;;13.40;99.90;;;;;;4711085;30;20076;-83
2021/10/19 12:50:02;;;;;;;8.07;4.32;;;13.40;99.90;;;;;;4710596;30;20056;-84
2021/10/19 12:52:32;;;;;;;3.33;3.03;;;13.50;99.90;;;;;;4705061;30;20068;-85
2021/10/19 12:55:41;;;;;;;3.63;2.50;;;13.60;99.90;;;;;;4638063;30;20493;-86
2021/10/19 12:58:31;;;;;;;2.45;2.25;;;13.60;99.90;;;;;;4659121;30;20531;-86
2021/10/19 13:01:07;;;;;;;3.38;2.90;;;13.70;99.90;;;;;;4659822;30;20062;-85
2021/10/19 13:03:38;;;;;;;5.55;3.25;;;13.70;99.90;;;;;;4655094;30;20057;-84
2021/10/19 13:06:30;;;;;;;5.30;2.90;;;13.80;99.90;;;;;;4654403;30;20050;-87
2021/10/19 13:09:23;;;;;;;6.85;2.90;;;13.90;99.90;;;;;;4651767;30;20791;-86
2021/10/19 13:12:01;;;;;;;4.35;2.33;;;14.00;99.90;;;;;;4704420;24;20058;-85
2021/10/19 13:15:26;;;;;;;4.28;2.63;;;14.10;99.90;;;;;;4696884;30;20049;-85
2021/10/19 13:37:59;;;;;;;6.05;2.00;;;14.40;99.90;;;;;;5187377;24;20044;-90
2021/10/19 13:40:46;;;;;;;4.65;2.25;;;14.50;99.90;;;;;;4702725;30;20066;-89
2021/10/19 13:44:02;;;;;;;2.05;1.83;;;14.50;99.90;;;;;;5168875;24;20034;31
2021/10/19 13:46:33;;;;;;;3.67;2.03;;;14.40;99.90;;;;;;4728687;30;20041;-88
2021/10/19 13:49:22;;;;;;;6.28;2.28;;;14.40;99.90;;;;;;4721973;30;20502;-87
2021/10/19 13:51:54;;;;;;;3.38;2.47;;;14.50;99.90;;;;;;4713459;30;20060;-87
2021/10/19 13:59:25;;;;;;;2.63;2.42;;;14.40;99.90;;;;;;4727299;30;20064;-84
2021/10/19 14:01:52;;;;;;;2.58;2.03;;;14.40;99.90;;;;;;4740427;30;20079;-83
2021/10/19 14:04:20;;;;;;;2.28;2.05;;;14.30;99.90;;;;;;4735828;30;20059;-84
2021/10/19 14:06:49;;;;;;;8.18;2.28;;;14.30;99.90;;;;;;4736501;30;20056;-83
2021/10/19 14:09:18;;;;;;;1.50;1.40;;;14.20;99.90;;;;;;4725537;30;20055;-84
2021/10/19 14:16:49;;;;;;;7.55;4.00;;;14.20;99.90;;;;;;4638882;30;20565;-84
2021/10/19 14:19:49;;;;;;;3.75;2.92;;;14.10;99.90;;;;;;4621303;30;20058;-84
2021/10/19 14:23:41;;;;;;;2.75;1.88;;;14.00;99.90;;;;;;4634167;30;20112;-84
2021/10/19 14:26:45;;;;;;;2.40;1.88;;;14.00;99.90;;;;;;4676999;30;20539;-84
2021/10/19 14:49:51;;;;;;;2.03;1.50;;;14.00;99.90;;;;;;4626410;30;20062;-88
2021/10/19 14:52:19;;;;;;;4.80;2.13;;;14.10;99.90;;;;;;4664332;30;20053;-89
2021/10/19 14:54:47;;;;;;;2.40;2.03;;;14.00;99.90;;;;;;4699758;30;20056;-89
2021/10/19 14:57:15;;;;;;;3.38;2.58;;;14.00;99.90;;;;;;4687197;30;20052;-88
2021/10/19 14:59:43;;;;;;;2.65;2.45;;;13.90;99.90;;;;;;4698343;30;20057;-88
2021/10/19 15:02:11;;;;;;;2.88;1.92;;;13.80;99.90;;;;;;4690647;30;20057;-87
2021/10/19 15:04:46;;;;;;;2.38;2.17;;;13.80;99.90;;;;;;4689924;30;20061;-86
2021/10/19 15:07:14;;;;;;;2.78;2.08;;;13.80;99.90;;;;;;4708425;30;20061;-79
2021/10/19 15:09:41;;;;;;;3.40;2.40;;;13.80;99.90;;;;;;4709748;30;20064;-86
2021/10/19 15:12:11;;;;;;;3.10;2.88;;;13.80;99.90;;;;;;4696774;30;20056;-85
2021/10/19 15:14:39;;;;;;;3.47;3.10;;;13.70;99.90;;;;;;4701163;30;20048;-85
2021/10/19 15:17:08;;;;;;;3.83;2.03;;;13.70;99.90;;;;;;4725379;30;20519;-85
2021/10/19 15:19:36;;;;;;;3.67;2.60;;;13.60;99.90;;;;;;4715253;30;20072;-88
2021/10/19 15:22:04;;;;;;;5.35;2.33;;;13.60;99.90;;;;;;4690641;30;20049;-85
2021/10/19 15:24:32;;;;;;;3.88;2.28;;;13.50;99.90;;;;;;4703278;30;20057;-85
2021/10/19 15:27:00;;;;;;;3.05;2.42;;;13.50;99.90;;;;;;4721763;30;20042;-85
2021/10/19 15:29:28;;;;;;;2.15;1.80;;;13.50;99.90;;;;;;4710891;30;20505;-86
2021/10/19 15:31:55;;;;;;;3.60;2.38;;;13.50;99.90;;;;;;4712246;30;20448;-86
2021/10/19 15:34:23;;;;;;;2.33;1.77;;;13.40;99.90;;;;;;4706512;30;20076;-86
2021/10/19 15:36:51;;;;;;;3.50;2.33;;;13.40;99.90;;;;;;4677115;30;20439;-85
2021/10/19 15:39:19;;;;;;;2.40;1.83;;;13.40;99.90;;;;;;4691535;30;20057;-84
2021/10/19 15:41:46;;;;;;;2.38;2.13;;;13.40;99.90;;;;;;4715789;30;20061;-86
2021/10/19 15:44:14;;;;;;;3.20;2.30;;;13.40;99.90;;;;;;4711623;30;20069;-85
2021/10/19 15:46:49;;;;;;;6.60;5.00;;;13.40;99.90;;;;;;4701300;30;20531;-84
2021/10/19 15:49:17;;;;;;;1.90;1.70;;;13.30;99.90;;;;;;4707588;30;20568;-86
2021/10/19 15:51:45;;;;;;;3.05;2.53;;;13.30;99.90;;;;;;4702484;30;20127;-86
2021/10/19 15:54:16;;;;;;;4.43;2.17;;;13.20;99.90;;;;;;4717035;30;20415;-86
2021/10/19 15:56:44;;;;;;;5.65;2.33;;;13.20;99.90;;;;;;4700656;30;20069;-86
2021/10/19 15:59:12;;;;;;;2.10;1.90;;;13.10;99.90;;;;;;4707646;30;20065;-86
2021/10/19 16:01:40;;;;;;;2.50;2.28;;;13.00;99.90;;;;;;4703864;30;20074;-85
2021/10/19 16:04:11;;;;;;;5.63;3.45;;;13.00;99.90;;;;;;4689260;30;20500;-85
2021/10/19 16:06:42;;;;;;;3.03;2.00;;;13.00;99.90;;;;;;4722409;30;20500;-86
2021/10/19 16:09:09;;;;;;;6.40;4.25;;;13.00;99.90;;;;;;4706088;30;20060;-85
2021/10/19 16:11:37;;;;;;;4.68;2.58;;;13.00;99.90;;;;;;4703749;30;20064;-85
2021/10/19 16:14:05;;;;;;;2.42;2.10;;;12.90;99.90;;;;;;4717338;30;20139;-85
2021/10/19 16:16:33;;;;;;;2.67;2.47;;;12.80;99.90;;;;;;4728323;30;20053;-84
2021/10/19 16:19:01;;;;;;;4.15;2.28;;;12.70;99.90;;;;;;4699507;30;20549;-85
2021/10/19 16:21:30;;;;;;;7.00;3.63;;;12.60;99.90;;;;;;4696517;30;20603;-85
2021/10/19 16:23:58;;;;;;;3.33;2.20;;;12.60;99.90;;;;;;4715281;30;20061;-85
2021/10/19 16:26:26;;;;;;;2.97;2.78;;;12.50;99.90;;;;;;4713344;30;20057;-85